createdAt,value
2022-12-23T00:08:42.086Z,16.97
2022-12-23T00:18:49.097Z,18.53
2022-12-23T00:28:58.858Z,20.67
2022-12-23T00:39:21.840Z,24.47
2022-12-23T00:49:42.126Z,21.43
2022-12-23T00:59:45.518Z,19.10
2022-12-23T01:09:50.084Z,21.17
2022-12-23T01:19:54.391Z,22.37
2022-12-23T01:30:01.837Z,21.47
2022-12-23T01:40:04.340Z,21.10
2022-12-23T01:50:23.601Z,22.53
2022-12-23T02:00:44.302Z,24.73
2022-12-23T02:11:13.113Z,21.67
2022-12-23T02:21:21.670Z,19.23
2022-12-23T02:31:37.143Z,20.90
2022-12-23T02:41:52.462Z,19.80
2022-12-23T02:51:58.162Z,17.43
2022-12-23T03:02:01.271Z,17.80
2022-12-23T03:12:19.888Z,20.97
2022-12-23T03:22:44.125Z,19.27
2022-12-23T03:32:54.262Z,18.70
2022-12-23T03:43:04.724Z,18.30
2022-12-23T03:53:12.373Z,18.97
2022-12-23T04:03:22.940Z,17.27
2022-12-23T04:13:27.447Z,18.07
2022-12-23T04:23:31.932Z,18.13
2022-12-23T04:33:34.019Z,17.50
2022-12-23T04:43:39.023Z,17.80
2022-12-23T04:53:41.179Z,21.77
2022-12-23T05:03:43.366Z,20.83
2022-12-23T05:13:47.660Z,17.73
2022-12-23T05:23:50.027Z,17.03
2022-12-23T05:33:54.596Z,18.33
2022-12-23T05:43:56.767Z,17.10
2022-12-23T05:53:58.923Z,16.00
2022-12-23T06:04:01.005Z,17.17
2022-12-23T06:14:03.126Z,16.73
2022-12-23T06:24:10.407Z,17.73
2022-12-23T06:34:12.434Z,20.13
2022-12-23T06:44:14.536Z,19.40
2022-12-23T06:54:18.644Z,18.43
2022-12-23T07:04:23.468Z,22.48
2022-12-23T07:14:27.958Z,15.90
2022-12-23T07:24:30.167Z,16.90
2022-12-23T07:34:32.342Z,15.67
2022-12-23T07:44:39.566Z,14.50
2022-12-23T07:54:43.910Z,14.43
2022-12-23T08:04:46.729Z,15.33
2022-12-23T08:14:53.949Z,16.00
2022-12-23T08:25:01.223Z,17.17
2022-12-23T08:35:03.523Z,16.50
2022-12-23T08:45:08.135Z,16.63
2022-12-23T08:55:14.930Z,16.33
2022-12-23T09:05:17.151Z,15.17
2022-12-23T09:15:21.781Z,15.27
2022-12-23T09:25:28.712Z,15.93
2022-12-23T09:35:31.436Z,15.17
2022-12-23T09:46:04.199Z,15.27
2022-12-23T09:56:19.735Z,16.10
2022-12-23T10:06:28.001Z,16.27
2022-12-23T10:16:34.772Z,15.93
2022-12-23T10:26:53.100Z,17.03
2022-12-23T10:37:03.062Z,15.67
2022-12-23T10:47:27.322Z,16.40
2022-12-23T10:57:34.306Z,15.40
2022-12-23T11:07:45.472Z,17.17
2022-12-23T11:18:01.727Z,17.93
2022-12-23T11:28:11.426Z,18.07
2022-12-23T11:38:14.216Z,20.53
2022-12-23T11:48:30.297Z,21.73
2022-12-23T11:58:48.801Z,21.60
2022-12-23T12:08:54.712Z,20.10
2022-12-23T12:19:06.695Z,22.23
2022-12-23T12:29:17.258Z,21.60
2022-12-23T12:39:26.435Z,22.93
2022-12-23T12:49:52.074Z,22.77
2022-12-23T13:00:05.623Z,23.20
2022-12-23T13:10:34.704Z,21.70
2022-12-23T13:21:00.274Z,21.23
2022-12-23T13:31:14.225Z,20.50
2022-12-23T13:41:51.644Z,20.80
2022-12-23T13:52:04.418Z,22.13
2022-12-23T14:02:55.904Z,20.77
2022-12-23T14:13:03.648Z,21.03
2022-12-23T14:23:29.963Z,21.77
2022-12-23T14:33:38.403Z,22.80
2022-12-23T14:43:51.341Z,25.07
2022-12-23T14:53:58.844Z,22.27
2022-12-23T15:04:27.918Z,24.73
2022-12-23T15:14:38.356Z,23.93
2022-12-23T15:24:45.908Z,24.40
2022-12-23T15:34:49.292Z,21.20
2022-12-23T15:44:51.814Z,21.93
2022-12-23T15:55:31.095Z,21.47
2022-12-23T16:05:36.087Z,22.03
2022-12-23T16:15:41.538Z,20.67
2022-12-23T16:25:52.892Z,21.63
2022-12-23T16:36:21.583Z,27.43
2022-12-23T16:46:27.143Z,21.43
2022-12-23T16:56:34.701Z,22.77
2022-12-23T17:06:41.144Z,24.50
2022-12-23T17:16:50.106Z,21.97
2022-12-23T17:26:54.092Z,22.87
2022-12-23T17:37:02.039Z,22.83
2022-12-23T17:47:14.631Z,22.97
2022-12-23T17:57:20.036Z,23.23
2022-12-23T18:07:26.843Z,23.97
2022-12-23T18:17:33.231Z,23.23
2022-12-23T18:27:40.012Z,19.13
2022-12-23T18:37:42.371Z,21.20
2022-12-23T18:47:46.825Z,23.50
2022-12-23T18:57:49.608Z,23.40
2022-12-23T19:07:53.460Z,22.40
2022-12-23T19:17:55.695Z,22.20
2022-12-23T19:28:00.108Z,23.87
2022-12-23T19:38:02.276Z,23.13
2022-12-23T19:48:12.271Z,23.43
2022-12-23T19:58:16.893Z,22.93
2022-12-23T20:08:18.976Z,24.53
2022-12-23T20:18:23.426Z,23.83
2022-12-23T20:28:28.453Z,24.87
2022-12-23T20:38:30.518Z,28.77
2022-12-23T20:48:34.590Z,29.37
2022-12-23T20:58:56.514Z,30.33
2022-12-23T21:09:05.969Z,30.00
2022-12-23T21:19:12.273Z,28.30
2022-12-23T21:29:19.043Z,28.67
2022-12-23T21:39:26.142Z,29.50
2022-12-23T21:49:32.221Z,30.30
2022-12-23T21:59:36.809Z,31.97
2022-12-23T22:09:41.088Z,29.17
2022-12-23T22:19:45.501Z,29.17
2022-12-23T22:29:47.824Z,29.40
2022-12-23T22:39:52.704Z,28.27
2022-12-23T22:49:57.522Z,26.30
2022-12-23T23:00:00.745Z,24.90
2022-12-23T23:10:12.288Z,24.33
2022-12-23T23:20:19.849Z,24.53
2022-12-23T23:30:24.486Z,25.13
2022-12-23T23:40:27.317Z,26.30
2022-12-23T23:50:31.637Z,24.73
